sensor_id;sensor_type;location;lat;lon;timestamp;pressure;altitude;pressure_sealevel;temperature;humidity
60918;BME280;46792;38.854;-9.384;2022-12-29T00:02:57;100175.41;;;15.26;100.00
60918;BME280;46792;38.854;-9.384;2022-12-29T00:04:57;100175.88;;;15.33;100.00
60918;BME280;46792;38.854;-9.384;2022-12-29T00:06:58;100165.91;;;15.23;100.00
60918;BME280;46792;38.854;-9.384;2022-12-29T00:08:58;100177.63;;;15.13;100.00
60918;BME280;46792;38.854;-9.384;2022-12-29T00:11:02;100171.91;;;15.10;100.00
60918;BME280;46792;38.854;-9.384;2022-12-29T00:13:03;100173.00;;;15.14;100.00
60918;BME280;46792;38.854;-9.384;2022-12-29T00:15:22;100172.75;;;15.10;100.00
60918;BME280;46792;38.854;-9.384;2022-12-29T00:18:30;100177.94;;;15.07;100.00
60918;BME280;46792;38.854;-9.384;2022-12-29T00:20:36;100168.94;;;15.06;100.00
60918;BME280;46792;38.854;-9.384;2022-12-29T00:22:56;100176.06;;;14.97;100.00
60918;BME280;46792;38.854;-9.384;2022-12-29T00:25:15;100173.34;;;14.97;100.00
60918;BME280;46792;38.854;-9.384;2022-12-29T00:27:35;100165.75;;;14.99;100.00
60918;BME280;46792;38.854;-9.384;2022-12-29T00:29:54;100174.44;;;14.96;100.00
60918;BME280;46792;38.854;-9.384;2022-12-29T00:35:13;100179.34;;;14.94;100.00
60918;BME280;46792;38.854;-9.384;2022-12-29T00:37:14;100173.91;;;14.88;100.00
60918;BME280;46792;38.854;-9.384;2022-12-29T00:39:17;100169.84;;;14.91;100.00
60918;BME280;46792;38.854;-9.384;2022-12-29T00:41:38;100173.66;;;14.85;100.00
60918;BME280;46792;38.854;-9.384;2022-12-29T00:43:57;100173.94;;;14.83;100.00
60918;BME280;46792;38.854;-9.384;2022-12-29T00:46:10;100173.66;;;14.80;100.00
60918;BME280;46792;38.854;-9.384;2022-12-29T00:48:11;100153.59;;;14.75;100.00
60918;BME280;46792;38.854;-9.384;2022-12-29T00:50:12;100156.81;;;14.78;100.00
60918;BME280;46792;38.854;-9.384;2022-12-29T00:52:13;100161.16;;;14.79;100.00
60918;BME280;46792;38.854;-9.384;2022-12-29T00:56:33;100173.94;;;14.83;100.00
60918;BME280;46792;38.854;-9.384;2022-12-29T00:58:34;100171.78;;;14.80;100.00
60918;BME280;46792;38.854;-9.384;2022-12-29T01:00:35;100175.59;;;14.79;100.00
60918;BME280;46792;38.854;-9.384;2022-12-29T01:02:44;100172.88;;;14.79;100.00
60918;BME280;46792;38.854;-9.384;2022-12-29T01:04:45;100175.28;;;14.81;100.00
60918;BME280;46792;38.854;-9.384;2022-12-29T01:06:46;100169.84;;;14.81;100.00
60918;BME280;46792;38.854;-9.384;2022-12-29T01:08:49;100164.66;;;14.84;100.00
60918;BME280;46792;38.854;-9.384;2022-12-29T01:11:12;100168.16;;;15.00;100.00
60918;BME280;46792;38.854;-9.384;2022-12-29T01:15:51;100171.13;;;15.04;100.00
60918;BME280;46792;38.854;-9.384;2022-12-29T01:17:52;100163.50;;;15.11;100.00
60918;BME280;46792;38.854;-9.384;2022-12-29T01:19:52;100164.34;;;15.01;100.00
60918;BME280;46792;38.854;-9.384;2022-12-29T01:21:53;100159.41;;;15.09;100.00
60918;BME280;46792;38.854;-9.384;2022-12-29T01:23:54;100159.16;;;15.10;100.00
60918;BME280;46792;38.854;-9.384;2022-12-29T01:25:55;100157.81;;;15.02;100.00
60918;BME280;46792;38.854;-9.384;2022-12-29T01:27:55;100159.22;;;14.95;100.00
60918;BME280;46792;38.854;-9.384;2022-12-29T01:29:56;100158.16;;;14.85;100.00
60918;BME280;46792;38.854;-9.384;2022-12-29T01:31:57;100153.28;;;14.82;100.00
60918;BME280;46792;38.854;-9.384;2022-12-29T01:33:57;100152.22;;;14.73;100.00
60918;BME280;46792;38.854;-9.384;2022-12-29T01:36:06;100149.25;;;14.59;100.00
60918;BME280;46792;38.854;-9.384;2022-12-29T01:38:07;100155.22;;;14.56;100.00
60918;BME280;46792;38.854;-9.384;2022-12-29T01:40:09;100153.06;;;14.53;100.00
60918;BME280;46792;38.854;-9.384;2022-12-29T01:42:19;100149.25;;;14.54;100.00
60918;BME280;46792;38.854;-9.384;2022-12-29T01:44:51;100149.25;;;14.59;100.00
60918;BME280;46792;38.854;-9.384;2022-12-29T01:47:10;100146.28;;;14.50;100.00
60918;BME280;46792;38.854;-9.384;2022-12-29T01:49:29;100136.50;;;14.49;100.00
60918;BME280;46792;38.854;-9.384;2022-12-29T01:51:31;100131.34;;;14.53;100.00
60918;BME280;46792;38.854;-9.384;2022-12-29T01:53:34;100133.50;;;14.51;100.00
60918;BME280;46792;38.854;-9.384;2022-12-29T01:55:44;100124.28;;;14.52;100.00
60918;BME280;46792;38.854;-9.384;2022-12-29T01:57:47;100120.72;;;14.56;100.00
60918;BME280;46792;38.854;-9.384;2022-12-29T01:59:53;100127.22;;;14.55;100.00
60918;BME280;46792;38.854;-9.384;2022-12-29T02:02:15;100135.41;;;14.50;100.00
60918;BME280;46792;38.854;-9.384;2022-12-29T02:04:16;100130.25;;;14.49;100.00
60918;BME280;46792;38.854;-9.384;2022-12-29T02:06:22;100125.34;;;14.56;100.00
60918;BME280;46792;38.854;-9.384;2022-12-29T02:08:26;100132.13;;;14.64;100.00
60918;BME280;46792;38.854;-9.384;2022-12-29T02:10:29;100131.59;;;14.56;100.00
60918;BME280;46792;38.854;-9.384;2022-12-29T02:12:30;100130.50;;;14.57;100.00
60918;BME280;46792;38.854;-9.384;2022-12-29T02:14:31;100127.53;;;14.59;100.00
60918;BME280;46792;38.854;-9.384;2022-12-29T02:26:53;100130.75;;;14.61;100.00
60918;BME280;46792;38.854;-9.384;2022-12-29T02:29:26;100120.69;;;14.67;100.00
60918;BME280;46792;38.854;-9.384;2022-12-29T02:32:18;100122.06;;;14.64;100.00
60918;BME280;46792;38.854;-9.384;2022-12-29T02:37:00;100123.97;;;14.69;100.00
60918;BME280;46792;38.854;-9.384;2022-12-29T02:43:57;100122.88;;;14.59;100.00
60918;BME280;46792;38.854;-9.384;2022-12-29T02:46:17;100120.16;;;14.59;100.00
60918;BME280;46792;38.854;-9.384;2022-12-29T02:48:32;100116.66;;;14.54;100.00
60918;BME280;46792;38.854;-9.384;2022-12-29T02:50:43;100128.59;;;14.58;100.00
60918;BME280;46792;38.854;-9.384;2022-12-29T02:52:54;100125.06;;;14.52;100.00
60918;BME280;46792;38.854;-9.384;2022-12-29T03:15:50;100133.75;;;14.54;100.00
60918;BME280;46792;38.854;-9.384;2022-12-29T03:18:25;100141.38;;;14.57;100.00
60918;BME280;46792;38.854;-9.384;2022-12-29T03:20:38;100129.44;;;14.43;100.00
60918;BME280;46792;38.854;-9.384;2022-12-29T03:22:44;100130.00;;;14.45;100.00
60918;BME280;46792;38.854;-9.384;2022-12-29T03:24:57;100136.50;;;14.44;100.00
60918;BME280;46792;38.854;-9.384;2022-12-29T03:27:03;100125.69;;;14.34;100.00
60918;BME280;46792;38.854;-9.384;2022-12-29T03:29:22;100129.72;;;14.41;100.00
60918;BME280;46792;38.854;-9.384;2022-12-29T03:31:25;100130.28;;;14.38;100.00
60918;BME280;46792;38.854;-9.384;2022-12-29T03:33:32;100134.38;;;14.30;100.00
60918;BME280;46792;38.854;-9.384;2022-12-29T03:35:38;100127.59;;;14.23;100.00
60918;BME280;46792;38.854;-9.384;2022-12-29T03:37:50;100133.00;;;14.33;100.00
60918;BME280;46792;38.854;-9.384;2022-12-29T03:39:52;100133.00;;;14.43;100.00
60918;BME280;46792;38.854;-9.384;2022-12-29T03:41:58;100131.66;;;14.36;100.00
60918;BME280;46792;38.854;-9.384;2022-12-29T03:44:00;100125.94;;;14.32;100.00
60918;BME280;46792;38.854;-9.384;2022-12-29T03:46:01;100125.69;;;14.28;100.00
60918;BME280;46792;38.854;-9.384;2022-12-29T03:48:02;100123.50;;;14.20;100.00
60918;BME280;46792;38.854;-9.384;2022-12-29T03:50:06;100125.69;;;14.28;100.00
60918;BME280;46792;38.854;-9.384;2022-12-29T03:52:12;100115.34;;;14.20;100.00
60918;BME280;46792;38.854;-9.384;2022-12-29T03:54:32;100106.69;;;14.13;100.00
60918;BME280;46792;38.854;-9.384;2022-12-29T03:56:33;100106.97;;;14.11;100.00
60918;BME280;46792;38.854;-9.384;2022-12-29T04:01:24;100100.75;;;13.95;100.00
60918;BME280;46792;38.854;-9.384;2022-12-29T04:03:41;100101.53;;;13.96;100.00
60918;BME280;46792;38.854;-9.384;2022-12-29T04:05:42;100093.41;;;13.91;100.00
60918;BME280;46792;38.854;-9.384;2022-12-29T04:07:42;100095.06;;;13.92;100.00
60918;BME280;46792;38.854;-9.384;2022-12-29T04:09:45;100098.56;;;13.92;100.00
60918;BME280;46792;38.854;-9.384;2022-12-29T04:12:04;100086.91;;;13.92;100.00
60918;BME280;46792;38.854;-9.384;2022-12-29T04:14:23;100094.78;;;13.98;100.00
60918;BME280;46792;38.854;-9.384;2022-12-29T04:16:24;100090.69;;;13.96;100.00
60918;BME280;46792;38.854;-9.384;2022-12-29T04:18:24;100085.53;;;13.99;100.00
60918;BME280;46792;38.854;-9.384;2022-12-29T04:20:26;100080.94;;;13.95;100.00
60918;BME280;46792;38.854;-9.384;2022-12-29T04:22:49;100078.47;;;13.98;100.00
60918;BME280;46792;38.854;-9.384;2022-12-29T04:25:15;100082.28;;;13.97;100.00
60918;BME280;46792;38.854;-9.384;2022-12-29T04:27:34;100077.66;;;13.98;100.00
60918;BME280;46792;38.854;-9.384;2022-12-29T04:30:09;100084.47;;;13.95;100.00
60918;BME280;46792;38.854;-9.384;2022-12-29T04:32:22;100078.22;;;13.90;100.00
60918;BME280;46792;38.854;-9.384;2022-12-29T04:34:25;100090.44;;;14.03;100.00
60918;BME280;46792;38.854;-9.384;2022-12-29T04:36:26;100093.94;;;13.98;100.00
60918;BME280;46792;38.854;-9.384;2022-12-29T04:38:27;100095.03;;;14.02;100.00
60918;BME280;46792;38.854;-9.384;2022-12-29T04:40:46;100102.09;;;14.03;100.00
60918;BME280;46792;38.854;-9.384;2022-12-29T04:42:49;100113.50;;;14.05;100.00
60918;BME280;46792;38.854;-9.384;2022-12-29T04:50:17;100114.00;;;14.23;100.00
60918;BME280;46792;38.854;-9.384;2022-12-29T04:52:26;100113.47;;;14.26;100.00
60918;BME280;46792;38.854;-9.384;2022-12-29T04:54:28;100123.78;;;14.24;100.00
60918;BME280;46792;38.854;-9.384;2022-12-29T04:56:39;100122.13;;;14.28;100.00
60918;BME280;46792;38.854;-9.384;2022-12-29T04:58:40;100114.25;;;14.42;100.00
60918;BME280;46792;38.854;-9.384;2022-12-29T05:00:40;100116.16;;;14.36;100.00
60918;BME280;46792;38.854;-9.384;2022-12-29T05:02:59;100119.94;;;14.45;100.00
60918;BME280;46792;38.854;-9.384;2022-12-29T05:05:00;100115.34;;;14.36;100.00
60918;BME280;46792;38.854;-9.384;2022-12-29T05:07:01;100124.84;;;14.38;100.00
60918;BME280;46792;38.854;-9.384;2022-12-29T05:09:02;100119.13;;;14.50;100.00
60918;BME280;46792;38.854;-9.384;2022-12-29T05:11:03;100112.34;;;14.42;100.00
60918;BME280;46792;38.854;-9.384;2022-12-29T05:16:02;100101.19;;;14.39;100.00
60918;BME280;46792;38.854;-9.384;2022-12-29T05:18:03;100098.47;;;14.39;100.00
60918;BME280;46792;38.854;-9.384;2022-12-29T05:20:05;100093.59;;;14.41;100.00
60918;BME280;46792;38.854;-9.384;2022-12-29T05:22:07;100105.59;;;14.29;100.00
60918;BME280;46792;38.854;-9.384;2022-12-29T05:24:30;100104.22;;;14.32;100.00
60918;BME280;46792;38.854;-9.384;2022-12-29T05:29:54;100104.25;;;14.22;100.00
60918;BME280;46792;38.854;-9.384;2022-12-29T05:31:54;100098.25;;;14.14;100.00
60918;BME280;46792;38.854;-9.384;2022-12-29T05:33:55;100102.91;;;14.19;100.00
60918;BME280;46792;38.854;-9.384;2022-12-29T05:35:56;100106.16;;;14.16;100.00
60918;BME280;46792;38.854;-9.384;2022-12-29T05:37:58;100106.16;;;14.16;100.00
60918;BME280;46792;38.854;-9.384;2022-12-29T05:39:58;100090.41;;;14.13;100.00
60918;BME280;46792;38.854;-9.384;2022-12-29T05:41:59;100082.25;;;14.08;100.00
60918;BME280;46792;38.854;-9.384;2022-12-29T05:44:25;100091.47;;;14.22;100.00
60918;BME280;46792;38.854;-9.384;2022-12-29T05:46:46;100089.31;;;14.19;100.00
60918;BME280;46792;38.854;-9.384;2022-12-29T05:48:54;100088.75;;;14.22;100.00
60918;BME280;46792;38.854;-9.384;2022-12-29T05:51:17;100096.09;;;14.22;100.00
60918;BME280;46792;38.854;-9.384;2022-12-29T05:53:23;100091.22;;;14.24;100.00
60918;BME280;46792;38.854;-9.384;2022-12-29T05:55:23;100094.19;;;14.22;100.00
60918;BME280;46792;38.854;-9.384;2022-12-29T05:57:27;100099.91;;;14.21;100.00
60918;BME280;46792;38.854;-9.384;2022-12-29T05:59:39;100094.47;;;14.26;100.00
60918;BME280;46792;38.854;-9.384;2022-12-29T06:01:43;100096.59;;;14.29;100.00
60918;BME280;46792;38.854;-9.384;2022-12-29T06:03:45;100091.47;;;14.27;100.00
60918;BME280;46792;38.854;-9.384;2022-12-29T06:05:46;100096.34;;;14.30;100.00
60918;BME280;46792;38.854;-9.384;2022-12-29T06:07:48;100098.22;;;14.30;100.00
60918;BME280;46792;38.854;-9.384;2022-12-29T06:09:51;100098.53;;;14.28;100.00
60918;BME280;46792;38.854;-9.384;2022-12-29T06:11:51;100103.94;;;14.28;100.00
60918;BME280;46792;38.854;-9.384;2022-12-29T06:13:52;100094.19;;;14.27;100.00
60918;BME280;46792;38.854;-9.384;2022-12-29T06:15:53;100097.97;;;14.26;100.00
60918;BME280;46792;38.854;-9.384;2022-12-29T06:17:54;100102.28;;;14.38;100.00
60918;BME280;46792;38.854;-9.384;2022-12-29T06:19:54;100095.25;;;14.32;100.00
60918;BME280;46792;38.854;-9.384;2022-12-29T06:21:55;100096.34;;;14.30;100.00
60918;BME280;46792;38.854;-9.384;2022-12-29T06:23:57;100103.91;;;14.39;100.00
60918;BME280;46792;38.854;-9.384;2022-12-29T06:25:59;100102.88;;;14.35;100.00
60918;BME280;46792;38.854;-9.384;2022-12-29T06:28:00;100103.91;;;14.39;100.00
60918;BME280;46792;38.854;-9.384;2022-12-29T06:30:19;100107.22;;;14.36;100.00
60918;BME280;46792;38.854;-9.384;2022-12-29T06:35:29;100110.72;;;14.36;100.00
60918;BME280;46792;38.854;-9.384;2022-12-29T06:37:29;100110.19;;;14.34;100.00
60918;BME280;46792;38.854;-9.384;2022-12-29T06:42:38;100112.63;;;14.30;100.00
60918;BME280;46792;38.854;-9.384;2022-12-29T06:45:04;100117.25;;;14.30;100.00
60918;BME280;46792;38.854;-9.384;2022-12-29T06:47:05;100115.91;;;14.27;100.00
60918;BME280;46792;38.854;-9.384;2022-12-29T06:49:05;100112.38;;;14.27;100.00
60918;BME280;46792;38.854;-9.384;2022-12-29T06:51:06;100112.34;;;14.32;100.00
60918;BME280;46792;38.854;-9.384;2022-12-29T06:53:06;100120.25;;;14.28;100.00
60918;BME280;46792;38.854;-9.384;2022-12-29T06:55:07;100112.91;;;14.29;100.00
60918;BME280;46792;38.854;-9.384;2022-12-29T06:57:08;100117.53;;;14.28;100.00
60918;BME280;46792;38.854;-9.384;2022-12-29T06:59:27;100124.59;;;14.24;100.00
60918;BME280;46792;38.854;-9.384;2022-12-29T07:01:27;100128.94;;;14.20;100.00
60918;BME280;46792;38.854;-9.384;2022-12-29T07:03:28;100128.38;;;14.23;100.00
60918;BME280;46792;38.854;-9.384;2022-12-29T07:05:29;100128.69;;;14.22;100.00
60918;BME280;46792;38.854;-9.384;2022-12-29T07:07:50;100125.69;;;14.18;100.00
60918;BME280;46792;38.854;-9.384;2022-12-29T07:10:12;100126.50;;;14.24;100.00
60918;BME280;46792;38.854;-9.384;2022-12-29T07:15:10;100128.38;;;14.28;100.00
60918;BME280;46792;38.854;-9.384;2022-12-29T07:17:11;100131.91;;;14.29;100.00
60918;BME280;46792;38.854;-9.384;2022-12-29T07:19:29;100130.81;;;14.40;100.00
60918;BME280;46792;38.854;-9.384;2022-12-29T07:21:30;100121.59;;;14.36;100.00
60918;BME280;46792;38.854;-9.384;2022-12-29T07:23:31;100128.91;;;14.41;100.00
60918;BME280;46792;38.854;-9.384;2022-12-29T07:25:32;100132.44;;;14.41;100.00
60918;BME280;46792;38.854;-9.384;2022-12-29T07:27:32;100127.56;;;14.38;100.00
60918;BME280;46792;38.854;-9.384;2022-12-29T07:29:33;100130.53;;;14.42;100.00
60918;BME280;46792;38.854;-9.384;2022-12-29T07:31:34;100134.34;;;14.41;100.00
60918;BME280;46792;38.854;-9.384;2022-12-29T07:33:34;100138.44;;;14.43;100.00
60918;BME280;46792;38.854;-9.384;2022-12-29T07:35:35;100128.38;;;14.39;100.00
60918;BME280;46792;38.854;-9.384;2022-12-29T07:37:35;100141.94;;;14.39;100.00
60918;BME280;46792;38.854;-9.384;2022-12-29T07:39:36;100146.56;;;14.38;100.00
60918;BME280;46792;38.854;-9.384;2022-12-29T07:41:55;100149.00;;;14.45;100.00
60918;BME280;46792;38.854;-9.384;2022-12-29T07:47:00;100153.09;;;14.37;100.00
60918;BME280;46792;38.854;-9.384;2022-12-29T07:49:01;100151.75;;;14.35;100.00
60918;BME280;46792;38.854;-9.384;2022-12-29T07:51:01;100159.31;;;14.38;100.00
60918;BME280;46792;38.854;-9.384;2022-12-29T07:53:02;100162.03;;;14.38;100.00
60918;BME280;46792;38.854;-9.384;2022-12-29T07:55:21;100163.41;;;14.35;100.00
60918;BME280;46792;38.854;-9.384;2022-12-29T07:57:41;100166.69;;;14.27;100.00
60918;BME280;46792;38.854;-9.384;2022-12-29T07:59:41;100171.84;;;14.34;100.00
60918;BME280;46792;38.854;-9.384;2022-12-29T08:01:42;100157.97;;;14.35;100.00
60918;BME280;46792;38.854;-9.384;2022-12-29T08:03:43;100164.25;;;14.30;100.00
60918;BME280;46792;38.854;-9.384;2022-12-29T08:05:43;100169.38;;;14.32;100.00
60918;BME280;46792;38.854;-9.384;2022-12-29T08:07:45;100168.84;;;14.30;100.00
60918;BME280;46792;38.854;-9.384;2022-12-29T08:09:45;100166.94;;;14.20;100.00
60918;BME280;46792;38.854;-9.384;2022-12-29T08:11:46;100169.94;;;14.19;100.00
60918;BME280;46792;38.854;-9.384;2022-12-29T08:13:47;100172.41;;;14.15;100.00
60918;BME280;46792;38.854;-9.384;2022-12-29T08:18:10;100168.31;;;14.12;100.00
60918;BME280;46792;38.854;-9.384;2022-12-29T08:20:29;100177.28;;;14.13;100.00
60918;BME280;46792;38.854;-9.384;2022-12-29T08:22:29;100168.88;;;14.09;100.00
60918;BME280;46792;38.854;-9.384;2022-12-29T08:24:30;100168.59;;;14.06;100.00
60918;BME280;46792;38.854;-9.384;2022-12-29T08:26:30;100178.09;;;14.08;100.00
60918;BME280;46792;38.854;-9.384;2022-12-29T08:31:09;100174.31;;;14.04;100.00
60918;BME280;46792;38.854;-9.384;2022-12-29T08:33:10;100180.28;;;14.06;100.00
60918;BME280;46792;38.854;-9.384;2022-12-29T08:35:11;100180.81;;;14.13;100.00
60918;BME280;46792;38.854;-9.384;2022-12-29T08:37:12;100186.53;;;14.17;100.00
60918;BME280;46792;38.854;-9.384;2022-12-29T08:39:13;100177.00;;;14.14;100.00
60918;BME280;46792;38.854;-9.384;2022-12-29T08:41:14;100174.84;;;14.17;100.00
60918;BME280;46792;38.854;-9.384;2022-12-29T08:45:35;100187.59;;;14.26;100.00
60918;BME280;46792;38.854;-9.384;2022-12-29T08:47:35;100179.72;;;14.25;100.00
60918;BME280;46792;38.854;-9.384;2022-12-29T08:49:36;100190.28;;;14.42;100.00
60918;BME280;46792;38.854;-9.384;2022-12-29T08:51:38;100199.53;;;14.41;100.00
60918;BME280;46792;38.854;-9.384;2022-12-29T08:53:38;100190.56;;;14.40;100.00
60918;BME280;46792;38.854;-9.384;2022-12-29T08:55:39;100186.78;;;14.41;100.00
60918;BME280;46792;38.854;-9.384;2022-12-29T08:57:40;100193.00;;;14.47;100.00
60918;BME280;46792;38.854;-9.384;2022-12-29T09:00:07;100199.53;;;14.51;100.00
60918;BME280;46792;38.854;-9.384;2022-12-29T09:02:11;100192.16;;;14.62;100.00
60918;BME280;46792;38.854;-9.384;2022-12-29T09:04:12;100200.88;;;14.59;100.00
60918;BME280;46792;38.854;-9.384;2022-12-29T09:06:13;100192.97;;;14.57;100.00
60918;BME280;46792;38.854;-9.384;2022-12-29T09:08:15;100202.47;;;14.60;100.00
60918;BME280;46792;38.854;-9.384;2022-12-29T09:10:15;100205.75;;;14.62;100.00
60918;BME280;46792;38.854;-9.384;2022-12-29T09:12:17;100203.31;;;14.60;100.00
60918;BME280;46792;38.854;-9.384;2022-12-29T09:14:18;100210.66;;;14.55;100.00
60918;BME280;46792;38.854;-9.384;2022-12-29T09:16:21;100206.56;;;14.52;100.00
60918;BME280;46792;38.854;-9.384;2022-12-29T09:18:41;100210.13;;;14.58;100.00
60918;BME280;46792;38.854;-9.384;2022-12-29T09:21:04;100197.03;;;14.60;100.00
60918;BME280;46792;38.854;-9.384;2022-12-29T09:23:04;100209.00;;;14.64;100.00
60918;BME280;46792;38.854;-9.384;2022-12-29T09:25:10;100200.59;;;14.55;100.00
60918;BME280;46792;38.854;-9.384;2022-12-29T09:27:14;100207.13;;;14.59;100.00
60918;BME280;46792;38.854;-9.384;2022-12-29T09:29:15;100209.00;;;14.64;100.00
60918;BME280;46792;38.854;-9.384;2022-12-29T09:31:18;100210.38;;;14.62;100.00
60918;BME280;46792;38.854;-9.384;2022-12-29T09:33:37;100207.66;;;14.77;100.00
60918;BME280;46792;38.854;-9.384;2022-12-29T09:35:49;100209.81;;;14.75;100.00
60918;BME280;46792;38.854;-9.384;2022-12-29T09:38:09;100216.59;;;14.78;100.00
60918;BME280;46792;38.854;-9.384;2022-12-29T09:40:32;100209.53;;;14.77;100.00
60918;BME280;46792;38.854;-9.384;2022-12-29T09:47:16;100220.66;;;14.90;100.00
60918;BME280;46792;38.854;-9.384;2022-12-29T09:51:31;100215.22;;;14.96;100.00
60918;BME280;46792;38.854;-9.384;2022-12-29T09:53:36;100213.84;;;14.98;100.00
60918;BME280;46792;38.854;-9.384;2022-12-29T09:55:41;100210.56;;;15.01;100.00
60918;BME280;46792;38.854;-9.384;2022-12-29T09:57:50;100214.09;;;15.07;100.00
60918;BME280;46792;38.854;-9.384;2022-12-29T10:00:01;100220.06;;;15.14;100.00
60918;BME280;46792;38.854;-9.384;2022-12-29T10:04:21;100206.47;;;15.04;100.00
60918;BME280;46792;38.854;-9.384;2022-12-29T10:06:42;100216.78;;;15.12;100.00
60918;BME280;46792;38.854;-9.384;2022-12-29T10:09:01;100216.50;;;15.14;100.00
60918;BME280;46792;38.854;-9.384;2022-12-29T10:12:02;100216.75;;;15.17;100.00
60918;BME280;46792;38.854;-9.384;2022-12-29T10:17:01;100218.97;;;15.15;100.00
60918;BME280;46792;38.854;-9.384;2022-12-29T10:23:51;100230.91;;;15.19;100.00
60918;BME280;46792;38.854;-9.384;2022-12-29T10:25:55;100224.06;;;15.32;100.00
60918;BME280;46792;38.854;-9.384;2022-12-29T10:28:17;100228.97;;;15.25;100.00
60918;BME280;46792;38.854;-9.384;2022-12-29T10:32:58;100235.72;;;15.33;100.00
60918;BME280;46792;38.854;-9.384;2022-12-29T10:35:14;100231.66;;;15.35;100.00
60918;BME280;46792;38.854;-9.384;2022-12-29T10:38:23;100243.09;;;15.32;100.00
60918;BME280;46792;38.854;-9.384;2022-12-29T10:40:25;100242.56;;;15.30;100.00
60918;BME280;46792;38.854;-9.384;2022-12-29T10:42:55;100241.22;;;15.28;100.00
60918;BME280;46792;38.854;-9.384;2022-12-29T10:44:56;100232.78;;;15.24;100.00
60918;BME280;46792;38.854;-9.384;2022-12-29T10:47:02;100238.50;;;15.28;100.00
60918;BME280;46792;38.854;-9.384;2022-12-29T10:49:06;100241.16;;;15.33;100.00
60918;BME280;46792;38.854;-9.384;2022-12-29T10:51:23;100245.25;;;15.35;100.00
60918;BME280;46792;38.854;-9.384;2022-12-29T10:53:28;100244.41;;;15.45;100.00
60918;BME280;46792;38.854;-9.384;2022-12-29T10:55:38;100245.72;;;15.53;100.00
60918;BME280;46792;38.854;-9.384;2022-12-29T10:57:44;100249.72;;;15.71;100.00
60918;BME280;46792;38.854;-9.384;2022-12-29T10:59:45;100250.25;;;15.73;100.00
60918;BME280;46792;38.854;-9.384;2022-12-29T11:06:35;100240.75;;;15.71;100.00
60918;BME280;46792;38.854;-9.384;2022-12-29T11:09:02;100234.72;;;15.74;100.00
60918;BME280;46792;38.854;-9.384;2022-12-29T11:11:05;100233.03;;;15.83;100.00
60918;BME280;46792;38.854;-9.384;2022-12-29T11:13:24;100231.41;;;15.87;100.00
60918;BME280;46792;38.854;-9.384;2022-12-29T11:15:26;100233.31;;;15.87;100.00
60918;BME280;46792;38.854;-9.384;2022-12-29T11:17:26;100237.38;;;15.89;100.00
60918;BME280;46792;38.854;-9.384;2022-12-29T11:19:29;100237.56;;;15.98;100.00
60918;BME280;46792;38.854;-9.384;2022-12-29T11:21:36;100240.91;;;15.95;100.00
60918;BME280;46792;38.854;-9.384;2022-12-29T11:23:41;100243.88;;;15.93;100.00
60918;BME280;46792;38.854;-9.384;2022-12-29T11:25:42;100236.78;;;15.98;100.00
60918;BME280;46792;38.854;-9.384;2022-12-29T11:28:13;100232.41;;;16.02;100.00
60918;BME280;46792;38.854;-9.384;2022-12-29T11:30:26;100241.66;;;16.01;100.00
60918;BME280;46792;38.854;-9.384;2022-12-29T11:32:28;100230.47;;;16.02;100.00
60918;BME280;46792;38.854;-9.384;2022-12-29T11:34:34;100236.97;;;16.11;100.00
60918;BME280;46792;38.854;-9.384;2022-12-29T11:36:35;100226.00;;;16.17;100.00
60918;BME280;46792;38.854;-9.384;2022-12-29T11:38:40;100229.81;;;16.16;100.00
60918;BME280;46792;38.854;-9.384;2022-12-29T11:40:42;100232.19;;;16.27;100.00
60918;BME280;46792;38.854;-9.384;2022-12-29T11:43:00;100220.97;;;16.34;100.00
60918;BME280;46792;38.854;-9.384;2022-12-29T11:45:09;100217.38;;;16.39;100.00
60918;BME280;46792;38.854;-9.384;2022-12-29T11:47:36;100208.44;;;16.33;100.00
60918;BME280;46792;38.854;-9.384;2022-12-29T11:49:38;100208.63;;;16.42;100.00
60918;BME280;46792;38.854;-9.384;2022-12-29T11:51:45;100201.97;;;16.53;100.00
60918;BME280;46792;38.854;-9.384;2022-12-29T11:53:49;100210.88;;;16.64;100.00
60918;BME280;46792;38.854;-9.384;2022-12-29T11:55:52;100210.59;;;16.66;100.00
60918;BME280;46792;38.854;-9.384;2022-12-29T11:57:57;100207.78;;;16.71;100.00
60918;BME280;46792;38.854;-9.384;2022-12-29T12:00:01;100198.25;;;16.73;100.00
60918;BME280;46792;38.854;-9.384;2022-12-29T12:04:56;100196.22;;;16.60;100.00
60918;BME280;46792;38.854;-9.384;2022-12-29T12:07:14;100189.63;;;16.61;100.00
60918;BME280;46792;38.854;-9.384;2022-12-29T12:09:38;100186.41;;;16.59;100.00
60918;BME280;46792;38.854;-9.384;2022-12-29T12:11:42;100184.47;;;16.60;100.00
60918;BME280;46792;38.854;-9.384;2022-12-29T12:14:23;100176.31;;;16.60;100.00
60918;BME280;46792;38.854;-9.384;2022-12-29T12:17:09;100176.44;;;16.73;100.00
60918;BME280;46792;38.854;-9.384;2022-12-29T12:21:41;100161.53;;;16.90;100.00
60918;BME280;46792;38.854;-9.384;2022-12-29T12:26:02;100158.81;;;17.14;100.00
60918;BME280;46792;38.854;-9.384;2022-12-29T12:30:51;100153.94;;;17.30;100.00
60918;BME280;46792;38.854;-9.384;2022-12-29T12:33:02;100151.94;;;17.36;100.00
60918;BME280;46792;38.854;-9.384;2022-12-29T12:35:05;100137.88;;;17.48;100.00
60918;BME280;46792;38.854;-9.384;2022-12-29T12:39:26;100151.19;;;17.49;100.00
60918;BME280;46792;38.854;-9.384;2022-12-29T13:00:03;100130.63;;;17.19;100.00
60918;BME280;46792;38.854;-9.384;2022-12-29T13:04:51;100122.13;;;17.01;100.00
60918;BME280;46792;38.854;-9.384;2022-12-29T13:11:34;100119.25;;;17.12;100.00
60918;BME280;46792;38.854;-9.384;2022-12-29T13:16:01;100111.59;;;17.33;100.00
60918;BME280;46792;38.854;-9.384;2022-12-29T13:28:36;100097.59;;;17.40;100.00